Time;durP1;ratioP1;P1;durP2;ratioP2;P2;SDS_P1;SDS_P2;PMS_P1;PMS_P2;Temp;Humidity;BMP_temperature;BMP_pressure;BME280_temperature;BME280_humidity;BME280_pressure;Samples;Min_cycle;Max_cycle;Signal;HPM_P1;HPM_P2
2021/11/27 00:00:25;;;;;;;23.98;16.98;;;10.60;87.20;;;;;;5052716;28;20078;-60
2021/11/27 00:02:52;;;;;;;21.13;16.60;;;10.60;88.00;;;;;;5052247;28;20115;-60
2021/11/27 00:05:18;;;;;;;24.08;17.33;;;10.50;87.30;;;;;;5051442;28;20432;-60
2021/11/27 00:07:45;;;;;;;25.35;17.25;;;10.50;87.80;;;;;;5033824;28;20105;-60
2021/11/27 00:10:13;;;;;;;26.60;17.52;;;10.60;87.50;;;;;;5033615;28;20447;-60
2021/11/27 00:12:39;;;;;;;22.50;18.13;;;10.60;87.00;;;;;;5034111;28;20029;-60
2021/11/27 00:15:07;;;;;;;23.10;16.67;;;10.60;87.50;;;;;;5052334;28;20045;-60
2021/11/27 00:17:33;;;;;;;23.50;17.00;;;10.60;87.10;;;;;;5053260;28;20374;-60
2021/11/27 00:19:59;;;;;;;24.25;17.27;;;10.60;87.30;;;;;;5053217;28;20037;-60
2021/11/27 00:22:24;;;;;;;25.02;17.90;;;10.70;86.80;;;;;;5036199;28;20507;-60
2021/11/27 00:24:50;;;;;;;20.55;16.30;;;10.70;87.00;;;;;;5053438;28;20032;-60
2021/11/27 00:27:16;;;;;;;23.52;17.73;;;10.60;87.40;;;;;;5052016;28;20486;-60
2021/11/27 00:29:42;;;;;;;23.85;18.00;;;10.60;87.30;;;;;;5053241;28;20021;-61
2021/11/27 00:32:07;;;;;;;25.67;18.58;;;10.70;87.40;;;;;;5052429;28;20033;-60
2021/11/27 00:34:33;;;;;;;21.70;17.40;;;10.70;87.10;;;;;;5053117;28;20478;-60
2021/11/27 00:36:59;;;;;;;24.75;18.52;;;10.70;87.00;;;;;;5046356;28;20466;-60
2021/11/27 00:39:25;;;;;;;25.20;17.98;;;10.70;87.00;;;;;;5073615;28;20020;-60
2021/11/27 00:41:50;;;;;;;22.92;17.98;;;10.70;86.70;;;;;;5044954;28;20030;-60
2021/11/27 00:44:17;;;;;;;24.00;18.13;;;10.60;86.70;;;;;;5033360;28;20033;-60
2021/11/27 00:46:43;;;;;;;23.23;17.58;;;10.60;86.80;;;;;;5047125;28;20025;-61
2021/11/27 00:49:10;;;;;;;25.73;18.02;;;10.50;87.20;;;;;;5048246;28;20033;-60
2021/11/27 00:51:35;;;;;;;25.05;18.33;;;10.60;87.40;;;;;;5041486;28;20029;-61
2021/11/27 00:54:01;;;;;;;25.50;17.90;;;10.60;87.20;;;;;;5040765;28;20033;-59
2021/11/27 00:56:27;;;;;;;25.10;19.13;;;10.60;86.40;;;;;;5031830;28;20561;-60
2021/11/27 00:58:53;;;;;;;24.70;19.25;;;10.60;87.30;;;;;;5032015;28;20074;-60
2021/11/27 01:01:28;;;;;;;25.83;18.65;;;10.70;87.20;;;;;;5041188;28;20479;-60
2021/11/27 01:03:54;;;;;;;;;;;10.70;86.90;;;;;;5048760;28;20032;-60
2021/11/27 01:06:22;;;;;;;23.65;17.80;;;10.60;87.00;;;;;;5050333;28;20274;-61
2021/11/27 01:08:49;;;;;;;22.40;18.17;;;10.60;87.70;;;;;;5043377;28;20017;-60
2021/11/27 01:11:23;;;;;;;28.25;20.20;;;10.50;87.30;;;;;;5037170;28;20372;-60
2021/11/27 01:13:50;;;;;;;26.15;20.00;;;10.50;87.70;;;;;;5045103;28;20025;-60
2021/11/27 01:16:18;;;;;;;24.40;18.95;;;10.50;88.00;;;;;;5033241;28;20029;-60
2021/11/27 01:18:45;;;;;;;25.42;18.77;;;10.60;87.50;;;;;;5046609;28;20101;-60
2021/11/27 01:21:14;;;;;;;27.10;19.50;;;10.60;87.90;;;;;;5044425;28;20033;-60
2021/11/27 01:23:41;;;;;;;24.35;18.42;;;10.50;88.10;;;;;;5047325;28;20021;-60
2021/11/27 01:26:07;;;;;;;24.50;18.92;;;10.60;88.10;;;;;;5050664;28;20490;-60
2021/11/27 01:28:33;;;;;;;28.83;18.95;;;10.60;88.20;;;;;;5045917;28;20032;-61
2021/11/27 01:31:00;;;;;;;25.35;19.95;;;10.50;87.40;;;;;;5035813;28;20493;-60
2021/11/27 01:33:30;;;;;;;26.45;20.13;;;10.50;87.90;;;;;;5042075;28;20037;-60
2021/11/27 01:35:57;;;;;;;29.38;21.25;;;10.50;87.90;;;;;;5047151;28;20037;-60
2021/11/27 01:38:23;;;;;;;29.45;20.20;;;10.40;87.40;;;;;;5053436;28;20032;-61
2021/11/27 01:40:49;;;;;;;27.88;20.90;;;10.40;87.60;;;;;;5042580;28;20029;-60
2021/11/27 01:43:15;;;;;;;26.83;20.30;;;10.50;88.10;;;;;;5052152;28;20025;-60
2021/11/27 01:45:41;;;;;;;30.42;21.55;;;10.50;88.10;;;;;;5051032;28;20147;-59
2021/11/27 01:48:14;;;;;;;28.30;19.88;;;10.50;88.40;;;;;;5036664;28;20029;-59
2021/11/27 01:50:48;;;;;;;27.40;20.58;;;10.40;88.00;;;;;;5038909;28;20025;-59
2021/11/27 01:53:14;;;;;;;32.00;20.95;;;10.50;88.20;;;;;;5050727;28;20024;-59
2021/11/27 01:55:41;;;;;;;27.10;20.48;;;10.30;88.50;;;;;;5051466;28;20025;-59
2021/11/27 01:58:07;;;;;;;31.92;21.85;;;10.20;88.70;;;;;;5051469;28;20017;-60
2021/11/27 02:00:35;;;;;;;34.15;22.73;;;10.30;89.10;;;;;;5036234;28;20040;-59
2021/11/27 02:03:01;;;;;;;31.98;22.60;;;10.20;89.10;;;;;;5052155;28;20017;-59
2021/11/27 02:05:27;;;;;;;39.80;24.23;;;10.20;89.50;;;;;;5052888;28;20535;-58
2021/11/27 02:07:53;;;;;;;35.47;23.77;;;10.20;90.00;;;;;;5054411;28;20025;-60
2021/11/27 02:10:19;;;;;;;33.63;24.10;;;10.10;89.80;;;;;;5055062;28;20501;-59
2021/11/27 02:12:45;;;;;;;36.25;23.60;;;10.20;90.30;;;;;;5054180;28;20029;-60
2021/11/27 02:15:13;;;;;;;35.35;23.58;;;10.20;90.10;;;;;;5046215;28;20037;-60
2021/11/27 02:17:39;;;;;;;36.47;23.58;;;10.10;90.30;;;;;;5051548;28;20029;-59
2021/11/27 02:20:07;;;;;;;33.33;22.50;;;10.20;90.50;;;;;;5054985;28;20178;-59
2021/11/27 02:22:34;;;;;;;35.83;23.77;;;10.10;90.40;;;;;;5054438;28;20021;-59
2021/11/27 02:25:06;;;;;;;36.85;25.38;;;10.10;90.50;;;;;;5039430;28;20125;-59
2021/11/27 02:27:31;;;;;;;37.35;25.80;;;10.10;90.80;;;;;;5050374;28;20052;-59
2021/11/27 02:29:57;;;;;;;36.60;24.90;;;10.10;90.80;;;;;;5053048;28;20068;-59
2021/11/27 02:32:23;;;;;;;38.28;25.30;;;10.10;90.70;;;;;;5066143;28;20048;-59
2021/11/27 02:34:49;;;;;;;37.63;25.27;;;10.10;90.70;;;;;;5035586;28;20036;-60
2021/11/27 02:37:14;;;;;;;39.08;25.80;;;10.10;90.70;;;;;;5044833;28;20033;-59
2021/11/27 02:39:41;;;;;;;40.72;25.77;;;10.20;91.00;;;;;;5046528;28;20383;-60
2021/11/27 02:42:08;;;;;;;34.78;23.58;;;10.20;90.90;;;;;;5047590;28;20102;-60
2021/11/27 02:44:35;;;;;;;33.85;24.42;;;10.20;91.10;;;;;;5053774;28;20025;-60
2021/11/27 02:47:02;;;;;;;36.15;24.75;;;10.10;90.90;;;;;;5051430;28;20032;-60
2021/11/27 02:49:28;;;;;;;32.50;23.88;;;10.20;91.00;;;;;;5051155;28;20036;-60
2021/11/27 02:51:54;;;;;;;35.80;24.23;;;10.10;90.90;;;;;;5053809;28;20658;-60
2021/11/27 02:54:21;;;;;;;38.72;26.50;;;10.10;91.20;;;;;;5050397;28;20021;-61
2021/11/27 02:56:47;;;;;;;35.97;24.13;;;10.10;91.00;;;;;;5048056;28;20132;-60
2021/11/27 02:59:22;;;;;;;35.83;24.58;;;10.20;91.00;;;;;;5052130;28;20035;-60
2021/11/27 03:01:56;;;;;;;35.17;24.85;;;10.30;91.30;;;;;;5036645;28;20021;-60
2021/11/27 03:04:26;;;;;;;37.33;25.40;;;10.20;90.80;;;;;;5038229;28;20375;-60
2021/11/27 03:06:53;;;;;;;33.55;24.73;;;10.20;91.00;;;;;;5051903;28;20111;-60
2021/11/27 03:09:19;;;;;;;36.25;23.65;;;10.20;91.00;;;;;;5037630;28;20068;-60
2021/11/27 03:11:49;;;;;;;35.60;25.23;;;10.30;90.90;;;;;;5045399;28;20037;-60
2021/11/27 03:14:15;;;;;;;33.17;24.90;;;10.20;91.00;;;;;;5035076;28;20032;-60
2021/11/27 03:16:41;;;;;;;32.10;23.75;;;10.30;91.00;;;;;;5047107;28;20043;-60
2021/11/27 03:19:06;;;;;;;36.17;25.33;;;10.30;91.10;;;;;;5052888;28;20033;-60
2021/11/27 03:21:33;;;;;;;35.40;25.60;;;10.30;91.10;;;;;;5046274;28;20503;-60
2021/11/27 03:23:59;;;;;;;34.17;24.90;;;10.40;91.10;;;;;;5041745;28;20057;-60
2021/11/27 03:26:25;;;;;;;36.78;25.48;;;10.40;91.00;;;;;;5051714;28;20498;-60
2021/11/27 03:28:50;;;;;;;33.13;24.20;;;10.40;91.40;;;;;;5054385;28;20060;-60
2021/11/27 03:31:16;;;;;;;34.90;24.60;;;10.40;90.80;;;;;;5050757;28;20037;-60
2021/11/27 03:33:42;;;;;;;33.42;25.80;;;10.30;91.10;;;;;;5037848;28;20056;-61
2021/11/27 03:36:08;;;;;;;34.15;24.73;;;10.20;91.00;;;;;;5048533;28;20215;-60
2021/11/27 03:38:39;;;;;;;34.03;25.25;;;10.20;91.20;;;;;;5054079;28;20087;-59
2021/11/27 03:41:05;;;;;;;36.05;24.52;;;10.20;91.20;;;;;;5046842;28;20543;-59
2021/11/27 03:43:32;;;;;;;37.75;26.85;;;10.20;91.30;;;;;;5043088;28;20024;-59
2021/11/27 03:45:59;;;;;;;35.58;25.95;;;10.20;91.50;;;;;;5046333;28;20553;-59
2021/11/27 03:48:30;;;;;;;37.97;27.15;;;10.20;91.50;;;;;;5034855;28;20026;-60
2021/11/27 03:50:58;;;;;;;37.33;27.45;;;10.20;91.30;;;;;;5044476;28;20037;-60
2021/11/27 03:53:30;;;;;;;36.40;26.30;;;10.10;91.30;;;;;;5053353;28;20021;-59
2021/11/27 03:55:56;;;;;;;37.72;27.27;;;10.30;91.60;;;;;;5052325;28;20049;-60
2021/11/27 03:58:22;;;;;;;37.28;27.77;;;10.20;91.40;;;;;;5053669;28;20474;-60
2021/11/27 04:00:50;;;;;;;40.20;26.98;;;10.10;91.70;;;;;;5052350;28;20031;-59
2021/11/27 04:03:17;;;;;;;42.05;28.50;;;10.20;91.10;;;;;;5049989;28;20024;-60
2021/11/27 04:05:48;;;;;;;42.17;29.05;;;10.10;91.90;;;;;;5045084;28;20491;-60
2021/11/27 04:08:14;;;;;;;38.45;26.83;;;10.20;91.80;;;;;;5053231;28;20036;-59
2021/11/27 04:10:40;;;;;;;43.30;29.17;;;10.20;91.90;;;;;;5044762;28;20037;-59
2021/11/27 04:13:06;;;;;;;41.38;29.85;;;10.20;91.60;;;;;;5044588;28;20383;-59
2021/11/27 04:15:32;;;;;;;41.28;29.20;;;10.20;91.70;;;;;;5035710;28;20041;-59
2021/11/27 04:17:58;;;;;;;40.05;28.08;;;10.10;91.70;;;;;;5037991;28;20030;-60
2021/11/27 04:20:23;;;;;;;39.65;28.45;;;10.20;91.70;;;;;;5051993;28;20360;-60
2021/11/27 04:22:49;;;;;;;42.65;28.40;;;10.30;91.80;;;;;;5053204;28;20021;-60
2021/11/27 04:25:15;;;;;;;41.15;27.75;;;10.20;91.70;;;;;;5046978;28;20037;-60
2021/11/27 04:27:41;;;;;;;39.35;27.95;;;10.30;91.70;;;;;;5053211;28;20131;-61
2021/11/27 04:30:11;;;;;;;36.58;26.17;;;10.30;91.70;;;;;;5040197;28;20506;-60
2021/11/27 04:32:37;;;;;;;36.20;26.15;;;10.40;91.70;;;;;;5048780;28;20049;-60
2021/11/27 04:35:03;;;;;;;36.83;26.92;;;10.30;91.90;;;;;;5044861;28;20061;-60
2021/11/27 04:37:29;;;;;;;38.38;28.10;;;10.30;91.70;;;;;;5061291;28;20028;-60
2021/11/27 04:39:55;;;;;;;39.15;26.23;;;10.40;91.70;;;;;;5040634;28;20029;-60
2021/11/27 04:42:20;;;;;;;39.92;26.67;;;10.40;91.70;;;;;;5041931;28;20032;-60
2021/11/27 04:44:46;;;;;;;35.72;26.30;;;10.30;91.50;;;;;;5050693;28;20025;-59
2021/11/27 04:47:12;;;;;;;36.13;25.58;;;10.30;91.50;;;;;;5041551;28;20019;-59
2021/11/27 04:49:38;;;;;;;34.13;25.67;;;10.20;91.90;;;;;;5050061;28;20833;-59
2021/11/27 04:52:04;;;;;;;34.05;24.95;;;10.10;91.70;;;;;;5043422;28;20031;-59
2021/11/27 04:54:30;;;;;;;33.92;25.13;;;10.10;92.10;;;;;;5045225;28;20104;-59
2021/11/27 04:56:56;;;;;;;34.00;24.10;;;10.00;92.10;;;;;;5043907;28;20112;-59
2021/11/27 04:59:22;;;;;;;31.58;23.48;;;10.10;92.00;;;;;;5051808;28;20021;-59
2021/11/27 05:01:49;;;;;;;35.38;25.85;;;10.00;91.90;;;;;;5047473;28;20049;-60
2021/11/27 05:04:15;;;;;;;36.60;25.33;;;10.10;92.10;;;;;;5047247;28;20108;-60
2021/11/27 05:06:40;;;;;;;38.90;25.42;;;10.10;91.60;;;;;;5050338;28;20123;-60
2021/11/27 05:09:06;;;;;;;34.83;25.05;;;10.10;92.00;;;;;;5048475;28;20398;-60
2021/11/27 05:11:32;;;;;;;38.03;26.63;;;10.10;92.00;;;;;;5048528;28;20523;-60
2021/11/27 05:13:57;;;;;;;34.30;24.13;;;10.20;92.00;;;;;;5045150;28;20470;-60
2021/11/27 05:16:24;;;;;;;35.15;25.13;;;10.20;91.90;;;;;;5040165;28;20040;-60
2021/11/27 05:18:50;;;;;;;34.22;25.35;;;10.20;91.90;;;;;;5041084;28;20024;-59
2021/11/27 05:21:16;;;;;;;33.83;25.33;;;10.30;91.70;;;;;;5037579;28;20026;-59
2021/11/27 05:23:42;;;;;;;35.63;25.23;;;10.10;91.70;;;;;;5050111;28;20024;-59
2021/11/27 05:26:07;;;;;;;34.08;25.27;;;10.20;91.80;;;;;;5050241;28;20033;-60
2021/11/27 05:28:33;;;;;;;31.67;23.45;;;10.30;91.80;;;;;;5049954;28;20040;-60
2021/11/27 05:30:59;;;;;;;32.70;24.92;;;10.30;91.90;;;;;;5047654;28;20029;-59
2021/11/27 05:36:09;;;;;;;34.35;24.73;;;10.20;91.80;;;;;;5040797;28;20045;-59
2021/11/27 05:38:35;;;;;;;32.60;24.60;;;10.30;91.90;;;;;;5049193;28;20028;-60
2021/11/27 05:41:00;;;;;;;35.60;24.73;;;10.20;91.90;;;;;;5039693;28;20086;-59
2021/11/27 05:43:26;;;;;;;34.47;23.88;;;10.20;92.00;;;;;;5051963;28;20119;-60
2021/11/27 05:45:52;;;;;;;36.05;25.95;;;10.10;92.10;;;;;;5042241;28;20025;-60
2021/11/27 05:48:17;;;;;;;34.55;24.92;;;10.10;92.10;;;;;;5048261;28;20032;-60
2021/11/27 05:50:43;;;;;;;36.92;26.58;;;10.00;92.20;;;;;;5041403;28;20071;-60
2021/11/27 05:53:10;;;;;;;35.90;26.17;;;10.00;92.60;;;;;;5066888;28;20033;-60
2021/11/27 05:55:35;;;;;;;36.08;25.20;;;10.10;92.50;;;;;;5051407;28;20041;-59
2021/11/27 05:58:01;;;;;;;37.72;24.63;;;10.10;92.20;;;;;;5052352;28;20394;-59
2021/11/27 06:00:27;;;;;;;32.88;23.52;;;10.10;92.00;;;;;;5046295;28;20459;-60
2021/11/27 06:02:53;;;;;;;31.42;22.60;;;10.20;92.10;;;;;;5030913;28;20025;-60
2021/11/27 06:05:19;;;;;;;29.58;22.92;;;10.10;91.80;;;;;;5035228;28;20053;-60
2021/11/27 06:07:45;;;;;;;30.45;22.63;;;10.10;91.80;;;;;;5051902;28;20048;-60
2021/11/27 06:10:11;;;;;;;30.75;23.23;;;10.20;92.00;;;;;;5049821;28;20079;-60
2021/11/27 06:12:37;;;;;;;33.35;24.25;;;10.20;91.90;;;;;;5052228;28;20075;-60
2021/11/27 06:15:03;;;;;;;31.42;22.00;;;10.20;92.00;;;;;;5049008;28;20041;-60
2021/11/27 06:17:29;;;;;;;33.10;24.58;;;10.10;91.80;;;;;;5032242;28;20021;-60
2021/11/27 06:19:55;;;;;;;33.38;24.50;;;10.20;92.00;;;;;;5034248;28;20032;-60
2021/11/27 06:22:22;;;;;;;31.67;23.40;;;10.10;92.10;;;;;;5052045;28;20044;-60
2021/11/27 06:24:49;;;;;;;30.08;21.50;;;10.30;92.20;;;;;;5053399;28;20539;-60
2021/11/27 06:27:14;;;;;;;30.63;23.08;;;10.30;91.70;;;;;;5051681;28;20122;-60
2021/11/27 06:29:40;;;;;;;30.95;21.67;;;10.20;91.80;;;;;;5054682;28;20032;-60
2021/11/27 06:32:09;;;;;;;29.60;21.35;;;10.20;91.70;;;;;;5053823;28;20463;-60
2021/11/27 06:34:35;;;;;;;29.77;20.75;;;10.20;91.60;;;;;;5055331;28;20044;-60
2021/11/27 06:37:01;;;;;;;30.15;21.23;;;10.20;91.40;;;;;;5037792;28;20091;-61
2021/11/27 06:39:26;;;;;;;26.88;20.67;;;10.30;91.20;;;;;;5039511;28;20467;-60
2021/11/27 06:41:52;;;;;;;32.40;22.83;;;10.30;91.50;;;;;;5053586;28;20025;-60
2021/11/27 06:44:18;;;;;;;29.55;22.38;;;10.30;91.50;;;;;;5055357;28;20471;-60
2021/11/27 06:46:43;;;;;;;31.35;22.52;;;10.30;91.30;;;;;;5040310;28;20048;-60
2021/11/27 06:49:09;;;;;;;33.67;23.17;;;10.40;91.40;;;;;;5034129;28;20029;-60
2021/11/27 06:51:35;;;;;;;36.17;23.65;;;10.40;91.50;;;;;;5046926;28;20037;-60
2021/11/27 06:54:00;;;;;;;35.15;23.95;;;10.30;91.60;;;;;;5055276;28;20029;-59
2021/11/27 06:56:26;;;;;;;34.70;23.55;;;10.30;91.50;;;;;;5045652;28;20045;-59
2021/11/27 06:58:52;;;;;;;33.72;23.58;;;10.40;91.50;;;;;;5042490;28;20029;-59
2021/11/27 07:01:17;;;;;;;31.90;23.38;;;10.50;91.30;;;;;;5044956;28;20506;-60
2021/11/27 07:03:43;;;;;;;30.98;22.42;;;10.50;91.20;;;;;;5041659;28;20032;-59
2021/11/27 07:06:08;;;;;;;33.20;24.33;;;10.50;91.10;;;;;;5048912;28;20394;-60
2021/11/27 07:08:34;;;;;;;33.90;23.33;;;10.50;91.00;;;;;;5052508;28;20029;-60
2021/11/27 07:10:59;;;;;;;34.67;24.65;;;10.50;90.80;;;;;;5044014;28;20030;-60
2021/11/27 07:13:25;;;;;;;31.95;23.13;;;10.50;91.20;;;;;;5039292;28;20116;-60
2021/11/27 07:15:51;;;;;;;29.10;22.45;;;10.40;90.90;;;;;;5042885;28;20483;-60
2021/11/27 07:18:16;;;;;;;32.35;23.38;;;10.50;91.00;;;;;;5052235;28;20112;-60
2021/11/27 07:20:42;;;;;;;33.00;24.33;;;10.60;91.10;;;;;;5051005;28;20025;-60
2021/11/27 07:23:09;;;;;;;33.88;23.60;;;10.60;90.70;;;;;;5043402;28;20092;-60
2021/11/27 07:25:35;;;;;;;36.22;24.25;;;10.60;90.90;;;;;;5053302;28;20071;-60
2021/11/27 07:28:01;;;;;;;34.22;23.95;;;10.70;90.90;;;;;;5052718;28;20409;-61
2021/11/27 07:30:27;;;;;;;33.72;24.38;;;10.60;90.80;;;;;;5050625;28;20033;-60
2021/11/27 07:32:52;;;;;;;35.33;24.73;;;10.60;90.80;;;;;;5042981;28;20497;-60
2021/11/27 07:35:18;;;;;;;33.53;23.90;;;10.60;90.80;;;;;;5042530;28;20076;-60
2021/11/27 07:37:43;;;;;;;36.80;26.17;;;10.50;90.90;;;;;;5051329;28;20029;-60
2021/11/27 07:40:09;;;;;;;37.67;26.58;;;10.50;91.10;;;;;;5053093;28;20063;-60
2021/11/27 07:42:35;;;;;;;35.95;26.17;;;10.60;91.10;;;;;;5039108;28;20033;-60
2021/11/27 07:45:00;;;;;;;39.00;27.27;;;10.50;91.00;;;;;;5053473;28;20387;-60
2021/11/27 07:47:26;;;;;;;34.67;26.35;;;10.60;91.10;;;;;;5036820;28;20025;-60
2021/11/27 07:49:52;;;;;;;38.00;26.05;;;10.50;90.90;;;;;;5046264;28;20036;-61
2021/11/27 07:52:21;;;;;;;34.70;25.13;;;10.40;91.40;;;;;;5051015;28;20029;-60
2021/11/27 07:54:47;;;;;;;33.78;23.42;;;10.50;91.20;;;;;;5050828;28;20036;-60
2021/11/27 07:57:13;;;;;;;33.78;25.05;;;10.50;91.00;;;;;;5043090;28;20359;-59
2021/11/27 07:59:39;;;;;;;35.85;25.83;;;10.50;90.80;;;;;;5052676;28;20028;-59
2021/11/27 08:02:04;;;;;;;35.65;26.90;;;10.70;90.70;;;;;;5049973;28;20116;-59
2021/11/27 08:04:30;;;;;;;39.42;27.17;;;10.50;91.10;;;;;;5051505;28;20458;-59
2021/11/27 08:06:56;;;;;;;35.65;27.20;;;10.30;91.20;;;;;;5040872;28;20037;-59
2021/11/27 08:09:22;;;;;;;40.65;27.52;;;10.30;91.90;;;;;;5034096;28;20033;-60
2021/11/27 08:11:48;;;;;;;39.67;27.48;;;10.40;91.60;;;;;;5043206;28;20506;-60
2021/11/27 08:14:13;;;;;;;37.13;27.08;;;10.40;91.10;;;;;;5052915;28;20495;-59
2021/11/27 08:16:39;;;;;;;34.50;25.95;;;10.40;91.70;;;;;;5048132;28;20108;-60
2021/11/27 08:19:05;;;;;;;36.42;27.13;;;10.50;91.20;;;;;;5034691;28;20065;-60
2021/11/27 08:21:30;;;;;;;36.70;26.90;;;10.50;91.40;;;;;;5045234;28;20456;-60
2021/11/27 08:23:56;;;;;;;33.42;25.75;;;10.70;91.30;;;;;;5050292;28;20029;-60
2021/11/27 08:26:22;;;;;;;35.90;25.35;;;10.70;90.80;;;;;;5046865;28;20196;-60
2021/11/27 08:28:48;;;;;;;35.10;25.33;;;10.60;90.90;;;;;;5051324;28;20032;-60
2021/11/27 08:31:14;;;;;;;34.92;26.08;;;10.50;91.20;;;;;;5047156;28;20387;-60
2021/11/27 08:33:40;;;;;;;36.70;25.73;;;10.60;90.90;;;;;;5034446;28;20049;-60
2021/11/27 08:36:06;;;;;;;33.05;24.50;;;10.60;90.70;;;;;;5037833;28;20548;-60
2021/11/27 08:38:31;;;;;;;33.65;24.08;;;10.90;90.90;;;;;;5048294;28;20398;-60
2021/11/27 08:40:58;;;;;;;32.15;23.67;;;11.00;90.60;;;;;;5048183;28;20118;-60
2021/11/27 08:43:24;;;;;;;36.28;25.02;;;11.00;89.90;;;;;;5044797;28;20036;-61
2021/11/27 08:45:49;;;;;;;30.73;23.38;;;11.10;90.10;;;;;;5048104;28;20025;-60
2021/11/27 08:48:16;;;;;;;30.70;23.17;;;11.20;90.00;;;;;;5040062;28;20036;-60
2021/11/27 08:50:42;;;;;;;32.33;23.55;;;11.30;89.90;;;;;;5052043;28;20064;-60
2021/11/27 08:53:08;;;;;;;29.98;20.80;;;11.40;89.80;;;;;;5037893;28;20029;-60
2021/11/27 08:55:34;;;;;;;25.70;18.92;;;11.40;89.20;;;;;;5052570;28;20044;-60
2021/11/27 08:58:00;;;;;;;28.55;19.83;;;11.40;89.20;;;;;;5040193;28;20479;-60
2021/11/27 09:00:26;;;;;;;28.15;20.55;;;11.40;88.80;;;;;;5043748;28;20029;-61
2021/11/27 09:02:56;;;;;;;25.88;20.08;;;11.40;88.30;;;;;;5032856;28;20041;-60
2021/11/27 09:05:22;;;;;;;26.48;19.65;;;11.30;89.00;;;;;;5034032;28;20025;-60
2021/11/27 09:07:48;;;;;;;26.23;19.25;;;11.10;87.80;;;;;;5050896;28;20433;-60
2021/11/27 09:10:13;;;;;;;27.38;17.63;;;11.10;88.50;;;;;;5051082;28;20025;-60
2021/11/27 09:12:39;;;;;;;22.88;17.83;;;10.90;88.50;;;;;;5036242;28;20030;-60
2021/11/27 09:15:06;;;;;;;25.88;19.85;;;10.90;89.40;;;;;;5035760;28;20029;-61
2021/11/27 09:17:31;;;;;;;26.88;18.90;;;11.00;88.60;;;;;;5038518;28;20040;-61
2021/11/27 09:19:57;;;;;;;26.30;18.73;;;11.00;89.30;;;;;;5032830;28;20030;-60
2021/11/27 09:22:23;;;;;;;26.63;19.15;;;10.90;88.90;;;;;;5038148;28;20096;-61
2021/11/27 09:24:49;;;;;;;27.17;19.40;;;10.90;90.00;;;;;;5033062;28;20360;-60
2021/11/27 09:27:14;;;;;;;26.25;19.42;;;11.00;88.30;;;;;;5043342;28;20040;-60
2021/11/27 09:29:41;;;;;;;26.77;18.98;;;10.90;89.60;;;;;;5052612;28;20029;-60
2021/11/27 09:32:07;;;;;;;26.48;19.60;;;11.00;89.20;;;;;;5043009;28;20071;-60
2021/11/27 09:34:34;;;;;;;29.25;20.42;;;11.10;87.10;;;;;;5035098;28;20041;-60
2021/11/27 09:37:02;;;;;;;25.17;19.33;;;11.20;89.20;;;;;;5051467;28;20478;-60
2021/11/27 09:39:29;;;;;;;26.42;19.23;;;11.30;87.00;;;;;;5052618;28;20078;-60
2021/11/27 09:41:57;;;;;;;26.17;19.45;;;11.60;87.40;;;;;;5052903;28;20505;-60
2021/11/27 09:44:23;;;;;;;28.63;20.33;;;11.90;86.50;;;;;;5051902;28;20025;-59
2021/11/27 09:46:49;;;;;;;27.27;20.83;;;11.80;85.90;;;;;;5046175;28;20033;-59
2021/11/27 09:49:21;;;;;;;25.63;19.65;;;11.90;84.60;;;;;;5051725;28;20052;-59
2021/11/27 09:51:49;;;;;;;27.85;20.42;;;11.90;85.80;;;;;;5038809;28;20550;-60
2021/11/27 09:54:17;;;;;;;31.55;21.33;;;11.80;85.50;;;;;;5046533;28;20057;-59
2021/11/27 09:56:44;;;;;;;31.45;20.70;;;11.90;85.30;;;;;;5044452;28;20077;-60
2021/11/27 09:59:10;;;;;;;29.67;22.75;;;11.70;85.40;;;;;;5038090;28;20450;-59
2021/11/27 10:01:38;;;;;;;28.52;21.10;;;11.80;86.10;;;;;;5051828;28;20061;-60
2021/11/27 10:04:08;;;;;;;29.52;22.10;;;11.80;85.20;;;;;;5055388;28;20025;-61
2021/11/27 10:06:39;;;;;;;29.13;21.23;;;11.90;84.60;;;;;;5051483;28;20132;-61
2021/11/27 10:09:18;;;;;;;29.67;20.95;;;12.00;82.40;;;;;;5054827;28;20037;-61
2021/11/27 10:11:46;;;;;;;28.27;20.35;;;12.00;84.30;;;;;;5052605;28;20036;-61
2021/11/27 10:14:13;;;;;;;27.23;19.33;;;12.00;85.00;;;;;;5043205;28;20436;-61
2021/11/27 10:16:56;;;;;;;26.40;19.10;;;12.00;85.00;;;;;;5045903;28;20033;-61
2021/11/27 10:19:23;;;;;;;27.40;20.73;;;11.90;83.60;;;;;;5055936;28;20044;-61
2021/11/27 10:21:55;;;;;;;28.40;20.70;;;12.10;84.70;;;;;;5054480;28;20021;-61
2021/11/27 10:24:27;;;;;;;27.67;20.20;;;12.30;87.90;;;;;;5051629;28;20075;-60
2021/11/27 10:26:53;;;;;;;26.05;18.95;;;12.30;91.90;;;;;;5050724;28;20071;-61
2021/11/27 10:29:29;;;;;;;24.23;18.75;;;12.40;93.50;;;;;;5055878;28;20025;-60
2021/11/27 10:32:16;;;;;;;24.77;18.42;;;12.20;91.70;;;;;;5050040;28;20028;-60
2021/11/27 10:34:56;;;;;;;28.67;19.13;;;12.20;91.80;;;;;;5039520;28;20033;-60
2021/11/27 10:37:30;;;;;;;26.20;19.45;;;12.40;92.10;;;;;;5044489;28;20021;-60
2021/11/27 10:40:02;;;;;;;29.13;22.33;;;12.30;91.70;;;;;;5039439;28;20076;-60
2021/11/27 10:42:29;;;;;;;24.35;18.80;;;12.30;92.30;;;;;;5044372;28;20060;-60
2021/11/27 10:44:56;;;;;;;25.90;17.65;;;12.30;92.10;;;;;;5046118;28;20560;-60
2021/11/27 10:47:23;;;;;;;26.98;18.33;;;12.30;92.70;;;;;;5047367;28;20025;-61
2021/11/27 10:49:50;;;;;;;25.77;19.00;;;12.10;92.80;;;;;;5037958;28;20021;-60
2021/11/27 10:52:28;;;;;;;27.25;20.20;;;12.00;93.30;;;;;;5049116;28;20115;-61
2021/11/27 10:54:58;;;;;;;27.40;19.42;;;12.10;92.70;;;;;;5054390;28;20108;-60
2021/11/27 10:57:38;;;;;;;25.95;19.95;;;12.10;93.40;;;;;;5049452;28;20406;-60
2021/11/27 11:00:26;;;;;;;44.25;29.13;;;12.00;92.60;;;;;;5051329;28;20075;-60
2021/11/27 11:02:51;;;;;;;26.90;20.00;;;12.10;93.40;;;;;;5050822;28;20053;-60
2021/11/27 11:05:19;;;;;;;28.90;20.60;;;11.90;93.30;;;;;;5054645;28;20118;-60
2021/11/27 11:07:56;;;;;;;27.75;20.45;;;11.90;93.50;;;;;;5051508;28;20087;-60
2021/11/27 11:10:32;;;;;;;27.42;19.60;;;11.80;93.00;;;;;;5043158;28;20030;-61
2021/11/27 11:13:04;;;;;;;24.90;19.70;;;11.80;93.50;;;;;;5044680;28;20040;-61
2021/11/27 11:15:48;;;;;;;25.90;19.70;;;11.70;93.40;;;;;;5054860;28;20393;-61
2021/11/27 11:18:23;;;;;;;26.55;19.42;;;11.80;93.50;;;;;;5037782;28;20032;-61
2021/11/27 11:21:00;;;;;;;28.42;19.58;;;11.90;93.40;;;;;;5034944;28;20018;-60
2021/11/27 11:23:32;;;;;;;25.50;19.30;;;11.90;93.40;;;;;;5050084;28;20032;-61
2021/11/27 11:26:16;;;;;;;26.23;19.17;;;12.00;93.50;;;;;;5046669;28;20112;-60
2021/11/27 11:28:47;;;;;;;25.92;19.05;;;11.90;92.90;;;;;;5051975;28;20029;-60
2021/11/27 11:31:30;;;;;;;27.00;18.75;;;11.80;93.10;;;;;;5054111;28;20370;-59
2021/11/27 11:33:59;;;;;;;26.55;19.63;;;11.60;92.80;;;;;;5053482;28;20090;-61
2021/11/27 11:36:25;;;;;;;28.13;20.67;;;11.60;94.00;;;;;;5053140;28;20434;-60
2021/11/27 11:38:54;;;;;;;25.83;19.75;;;11.60;94.00;;;;;;5052603;28;20108;-59
2021/11/27 11:41:22;;;;;;;29.85;20.13;;;11.70;93.70;;;;;;5054693;28;20072;-60
2021/11/27 11:43:49;;;;;;;29.52;19.92;;;11.70;94.00;;;;;;5036287;28;20034;-60
2021/11/27 11:46:15;;;;;;;26.13;18.58;;;11.80;93.90;;;;;;5034403;28;20036;-60
2021/11/27 11:48:50;;;;;;;24.63;18.98;;;11.90;93.50;;;;;;5034497;28;20446;-60
2021/11/27 11:51:40;;;;;;;28.90;19.95;;;11.80;93.20;;;;;;5034451;28;20104;-60
2021/11/27 11:54:08;;;;;;;27.92;19.00;;;12.00;93.00;;;;;;5054111;28;20044;-60
2021/11/27 11:56:37;;;;;;;26.02;19.77;;;11.70;93.60;;;;;;5054097;28;20044;-61
2021/11/27 11:59:21;;;;;;;27.98;19.80;;;11.80;93.90;;;;;;5053554;28;20053;-61
2021/11/27 12:02:08;;;;;;;26.63;19.27;;;11.80;93.90;;;;;;5052186;28;20028;-60
2021/11/27 12:04:33;;;;;;;27.73;20.42;;;11.90;93.70;;;;;;5053978;28;20033;-59
2021/11/27 12:07:08;;;;;;;27.83;21.05;;;12.00;93.70;;;;;;5051160;28;20033;-61
2021/11/27 12:09:34;;;;;;;29.60;20.65;;;12.00;93.30;;;;;;5032785;28;20498;-60
2021/11/27 12:12:00;;;;;;;27.75;21.83;;;12.10;92.60;;;;;;5035904;28;20103;-61
2021/11/27 12:14:26;;;;;;;26.92;20.40;;;12.00;93.30;;;;;;5053900;28;20029;-61
2021/11/27 12:17:01;;;;;;;26.15;19.75;;;12.00;93.70;;;;;;5052036;28;20501;-61
2021/11/27 12:19:38;;;;;;;26.05;19.50;;;12.00;93.20;;;;;;5033858;28;20040;-61
2021/11/27 12:22:36;;;;;;;28.02;20.02;;;12.00;92.90;;;;;;5046631;28;20108;-60
2021/11/27 12:25:23;;;;;;;27.83;20.30;;;12.00;92.80;;;;;;5053663;28;20025;-60
2021/11/27 12:28:06;;;;;;;26.10;20.30;;;12.00;93.70;;;;;;5053410;28;20044;-61
2021/11/27 12:30:41;;;;;;;28.67;20.33;;;12.00;93.00;;;;;;5052268;28;20021;-61
2021/11/27 12:33:07;;;;;;;29.00;21.25;;;12.30;93.30;;;;;;5052434;28;20053;-60